createdAt,value
2018-08-19T00:01:00.975Z,12.30
2018-08-19T00:03:29.455Z,12.33
2018-08-19T00:05:58.345Z,11.80
2018-08-19T00:08:26.584Z,12.23
2018-08-19T00:10:59.524Z,11.17
2018-08-19T00:13:28.809Z,14.77
2018-08-19T00:15:56.768Z,13.00
2018-08-19T00:18:25.049Z,13.53
2018-08-19T00:20:53.063Z,17.33
2018-08-19T00:23:23.969Z,12.67
2018-08-19T00:25:52.790Z,12.60
2018-08-19T00:28:21.461Z,11.73
2018-08-19T00:30:50.225Z,12.73
2018-08-19T00:33:18.169Z,14.63
2018-08-19T00:35:46.533Z,13.40
2018-08-19T00:38:15.311Z,15.23
2018-08-19T00:40:43.961Z,15.30
2018-08-19T00:43:12.333Z,13.73
2018-08-19T00:45:40.804Z,13.27
2018-08-19T00:48:10.836Z,13.03
2018-08-19T00:50:39.509Z,12.53
2018-08-19T00:53:09.300Z,13.17
2018-08-19T00:55:43.053Z,12.90
2018-08-19T00:58:19.085Z,13.90
2018-08-19T01:00:46.972Z,14.73
2018-08-19T01:03:15.529Z,14.13
2018-08-19T01:05:43.873Z,12.70
2018-08-19T01:08:13.534Z,14.17
2018-08-19T01:10:41.473Z,12.37
2018-08-19T01:13:10.901Z,13.77
2018-08-19T01:15:39.646Z,12.93
2018-08-19T01:18:08.364Z,14.00
2018-08-19T01:20:36.713Z,14.33
2018-08-19T01:23:05.593Z,13.63
2018-08-19T01:25:34.423Z,15.20
2018-08-19T01:28:02.805Z,13.87
2018-08-19T01:30:30.733Z,14.53
2018-08-19T01:32:59.670Z,15.93
2018-08-19T01:35:32.073Z,14.93
2018-08-19T01:38:00.478Z,14.77
2018-08-19T01:40:28.466Z,16.60
2018-08-19T01:42:56.416Z,13.63
2018-08-19T01:45:24.699Z,12.77
2018-08-19T01:47:52.588Z,14.73
2018-08-19T01:50:21.571Z,14.40
2018-08-19T01:52:50.487Z,14.77
2018-08-19T01:55:19.977Z,14.50
2018-08-19T01:57:49.621Z,14.70
2018-08-19T02:00:18.396Z,14.77
2018-08-19T02:03:08.736Z,15.17
2018-08-19T02:05:36.912Z,15.03
2018-08-19T02:08:06.417Z,15.20
2018-08-19T02:10:34.764Z,15.00
2018-08-19T02:13:03.998Z,14.63
2018-08-19T02:15:33.261Z,15.03
2018-08-19T02:18:02.409Z,13.37
2018-08-19T02:20:32.928Z,15.33
2018-08-19T02:23:02.364Z,15.10
2018-08-19T02:25:33.609Z,15.10
2018-08-19T02:28:02.941Z,14.70
2018-08-19T02:30:31.263Z,15.03
2018-08-19T02:33:00.570Z,16.80
2018-08-19T02:35:28.900Z,15.20
2018-08-19T02:37:56.881Z,14.03
2018-08-19T02:40:31.626Z,14.37
2018-08-19T02:42:59.851Z,14.77
2018-08-19T02:45:28.345Z,15.00
2018-08-19T02:47:56.677Z,14.70
2018-08-19T02:50:25.389Z,17.10
2018-08-19T02:52:54.072Z,13.40
2018-08-19T02:55:26.192Z,15.93
2018-08-19T02:57:59.978Z,13.77
2018-08-19T03:00:28.257Z,14.00
2018-08-19T03:02:56.493Z,14.57
2018-08-19T03:05:25.693Z,16.97
2018-08-19T03:07:54.788Z,16.00
2018-08-19T03:10:23.577Z,15.20
2018-08-19T03:12:51.546Z,16.40
2018-08-19T03:15:20.242Z,16.07
2018-08-19T03:17:49.221Z,15.73
2018-08-19T03:20:18.937Z,16.43
2018-08-19T03:22:47.321Z,17.13
2018-08-19T03:25:15.289Z,15.97
2018-08-19T03:27:44.549Z,16.83
2018-08-19T03:30:14.907Z,15.70
2018-08-19T03:32:49.478Z,17.40
2018-08-19T03:35:20.068Z,15.93
2018-08-19T03:37:50.549Z,18.00
2018-08-19T03:40:18.529Z,15.10
2018-08-19T03:42:46.912Z,15.47
2018-08-19T03:45:18.006Z,15.10
2018-08-19T03:50:27.576Z,16.47
2018-08-19T03:52:56.249Z,14.30
2018-08-19T03:55:25.884Z,17.40
2018-08-19T03:57:57.216Z,15.60
2018-08-19T04:00:25.509Z,17.03
2018-08-19T04:02:55.237Z,16.20
2018-08-19T04:05:40.474Z,17.40
2018-08-19T04:08:09.684Z,16.70
2018-08-19T04:10:38.863Z,16.30
2018-08-19T04:13:26.784Z,15.60
2018-08-19T04:16:00.176Z,15.90
2018-08-19T04:18:36.128Z,14.93
2018-08-19T04:21:06.231Z,15.33
2018-08-19T04:23:34.930Z,17.00
2018-08-19T04:26:04.132Z,15.47
2018-08-19T04:28:36.173Z,14.77
2018-08-19T04:31:08.677Z,16.20
2018-08-19T04:33:37.973Z,17.67
2018-08-19T04:36:07.497Z,17.23
2018-08-19T04:38:36.663Z,16.93
2018-08-19T04:41:04.605Z,17.27
2018-08-19T04:43:33.152Z,16.33
2018-08-19T04:46:02.954Z,17.20
2018-08-19T04:48:31.317Z,15.27
2018-08-19T04:51:00.005Z,16.80
2018-08-19T04:53:28.857Z,14.43
2018-08-19T04:55:58.297Z,14.10
2018-08-19T04:58:26.946Z,17.13
2018-08-19T05:00:54.904Z,16.60
2018-08-19T05:03:23.337Z,13.70
2018-08-19T05:05:52.097Z,15.40
2018-08-19T05:08:20.859Z,15.30
2018-08-19T05:10:49.353Z,15.07
2018-08-19T05:13:17.992Z,14.10
2018-08-19T05:15:45.934Z,14.20
2018-08-19T05:18:13.880Z,15.10
2018-08-19T05:20:42.296Z,15.63
2018-08-19T05:23:11.385Z,14.63
2018-08-19T05:25:46.113Z,15.63
2018-08-19T05:28:17.102Z,15.47
2018-08-19T05:30:46.309Z,16.30
2018-08-19T05:33:14.713Z,14.90
2018-08-19T05:35:43.417Z,16.53
2018-08-19T05:38:11.738Z,15.27
2018-08-19T05:40:46.036Z,15.90
2018-08-19T05:43:14.254Z,14.63
2018-08-19T05:46:00.484Z,13.87
2018-08-19T05:48:28.417Z,14.67
2018-08-19T05:50:57.958Z,14.10
2018-08-19T05:53:25.832Z,14.53
2018-08-19T05:55:53.801Z,13.40
2018-08-19T05:58:23.105Z,13.53
2018-08-19T06:01:00.238Z,12.57
2018-08-19T06:03:28.901Z,11.73
2018-08-19T06:05:57.171Z,14.87
2018-08-19T06:08:25.425Z,11.30
2018-08-19T06:10:53.321Z,12.70
2018-08-19T06:13:21.892Z,11.40
2018-08-19T06:15:50.569Z,10.97
2018-08-19T06:18:18.365Z,12.27
2018-08-19T06:20:46.636Z,11.93
2018-08-19T06:23:16.178Z,11.30
2018-08-19T06:25:45.313Z,12.10
2018-08-19T06:28:13.633Z,12.00
2018-08-19T06:30:44.046Z,11.30
2018-08-19T06:33:12.234Z,11.50
2018-08-19T06:35:41.065Z,11.93
2018-08-19T06:38:09.090Z,16.30
2018-08-19T06:40:37.825Z,12.67
2018-08-19T06:43:06.186Z,11.07
2018-08-19T06:45:34.145Z,12.10
2018-08-19T06:48:02.653Z,13.70
2018-08-19T06:50:37.353Z,11.60
2018-08-19T06:53:05.305Z,10.90
2018-08-19T06:55:34.386Z,11.60
2018-08-19T06:58:02.725Z,11.83
2018-08-19T07:00:31.742Z,13.00
2018-08-19T07:03:03.437Z,12.20
2018-08-19T07:05:32.781Z,10.93
2018-08-19T07:08:01.262Z,10.90
2018-08-19T07:10:35.998Z,13.07
2018-08-19T07:13:06.210Z,10.33
2018-08-19T07:15:35.335Z,12.63
2018-08-19T07:18:03.885Z,13.40
2018-08-19T07:20:31.721Z,12.47
2018-08-19T07:22:59.869Z,13.50
2018-08-19T07:25:27.989Z,14.50
2018-08-19T07:27:57.297Z,12.43
2018-08-19T07:30:26.396Z,12.30
2018-08-19T07:32:55.040Z,13.20
2018-08-19T07:35:23.324Z,12.80
2018-08-19T07:37:51.561Z,13.80
2018-08-19T07:40:20.112Z,11.73
2018-08-19T07:42:48.153Z,12.20
2018-08-19T07:45:17.484Z,12.80
2018-08-19T07:47:45.793Z,11.40
2018-08-19T07:50:13.937Z,11.50
2018-08-19T07:52:44.752Z,10.93
2018-08-19T07:55:12.748Z,10.70
2018-08-19T07:57:41.230Z,12.03
2018-08-19T08:00:10.013Z,11.80
2018-08-19T08:02:38.274Z,11.60
2018-08-19T08:05:07.713Z,12.00
2018-08-19T08:07:35.978Z,11.00
2018-08-19T08:10:09.582Z,9.80
2018-08-19T08:12:37.578Z,10.30
2018-08-19T08:15:05.753Z,10.40
2018-08-19T08:17:33.585Z,10.80
2018-08-19T08:20:03.605Z,10.97
2018-08-19T08:22:33.922Z,10.43
2018-08-19T08:25:02.408Z,10.73
2018-08-19T08:27:31.830Z,10.23
2018-08-19T08:30:02.481Z,10.03
2018-08-19T08:32:31.127Z,10.23
2018-08-19T08:34:59.917Z,12.03
2018-08-19T08:37:27.877Z,9.73
2018-08-19T08:40:00.172Z,9.40
2018-08-19T08:42:33.869Z,8.40
2018-08-19T08:45:01.822Z,9.27
2018-08-19T08:47:31.527Z,8.00
2018-08-19T08:49:59.977Z,8.80
2018-08-19T08:52:29.769Z,9.00
2018-08-19T08:55:03.121Z,7.63
2018-08-19T08:57:31.921Z,8.50
2018-08-19T08:59:59.809Z,8.07
2018-08-19T09:02:28.178Z,8.30
2018-08-19T09:04:56.401Z,8.33
2018-08-19T09:07:29.221Z,8.83
2018-08-19T09:09:57.137Z,8.53
2018-08-19T09:12:36.288Z,8.77
2018-08-19T09:15:04.597Z,9.67
2018-08-19T09:17:33.742Z,8.90
2018-08-19T09:20:02.253Z,9.30
2018-08-19T09:22:30.657Z,8.60
2018-08-19T09:24:59.397Z,8.93
2018-08-19T09:27:27.246Z,9.40
2018-08-19T09:29:56.257Z,8.03
2018-08-19T09:32:24.185Z,7.90
2018-08-19T09:34:52.850Z,8.17
2018-08-19T09:37:21.949Z,7.17
2018-08-19T09:39:50.329Z,8.30
2018-08-19T09:42:18.710Z,6.97
2018-08-19T09:44:49.401Z,8.40
2018-08-19T09:47:17.330Z,8.43
2018-08-19T09:49:45.485Z,8.03
2018-08-19T09:52:14.873Z,8.07
2018-08-19T09:54:42.813Z,7.70
2018-08-19T09:57:11.541Z,8.13
2018-08-19T09:59:40.229Z,6.97
2018-08-19T10:02:09.562Z,7.27
2018-08-19T10:04:37.576Z,7.83
2018-08-19T10:07:11.143Z,7.80
2018-08-19T10:09:39.576Z,8.07
2018-08-19T10:12:07.861Z,7.10
2018-08-19T10:14:39.756Z,8.93
2018-08-19T10:17:08.688Z,8.17
2018-08-19T10:19:37.703Z,6.60
2018-08-19T10:22:06.799Z,8.70
2018-08-19T10:24:34.793Z,7.00
2018-08-19T10:27:07.025Z,8.93
2018-08-19T10:29:40.449Z,7.47
2018-08-19T10:32:08.693Z,7.57
2018-08-19T10:34:37.045Z,6.93
2018-08-19T10:37:05.660Z,6.37
2018-08-19T10:39:34.360Z,6.90
2018-08-19T10:42:17.680Z,6.27
2018-08-19T10:44:47.228Z,6.40
2018-08-19T10:47:15.517Z,6.57
2018-08-19T10:49:56.025Z,5.87
2018-08-19T10:52:28.086Z,7.30
2018-08-19T10:54:58.953Z,6.83
2018-08-19T10:57:28.477Z,6.67
2018-08-19T10:59:58.481Z,6.70
2018-08-19T11:02:26.436Z,9.43
2018-08-19T11:04:58.413Z,6.20
2018-08-19T11:07:26.331Z,6.47
2018-08-19T11:10:36.538Z,6.80
2018-08-19T11:13:04.750Z,7.77
2018-08-19T11:15:59.309Z,6.50
2018-08-19T11:18:39.601Z,11.03
2018-08-19T11:21:12.556Z,6.90
2018-08-19T11:23:42.137Z,6.50
2018-08-19T11:26:10.573Z,6.37
2018-08-19T11:28:43.353Z,6.97
2018-08-19T11:31:18.788Z,5.80
2018-08-19T11:33:47.375Z,6.33
2018-08-19T11:36:16.306Z,5.83
2018-08-19T11:38:51.161Z,6.90
2018-08-19T11:41:20.354Z,5.90
2018-08-19T11:43:49.514Z,6.03
2018-08-19T11:46:17.790Z,6.70
2018-08-19T11:48:49.101Z,6.30
2018-08-19T11:51:16.964Z,6.27
2018-08-19T11:53:45.341Z,8.50
2018-08-19T11:56:14.073Z,6.40
2018-08-19T11:58:45.624Z,6.97
2018-08-19T12:01:16.805Z,7.33
2018-08-19T12:04:00.769Z,5.07
2018-08-19T12:06:30.364Z,6.20
2018-08-19T12:08:59.781Z,6.03
2018-08-19T12:11:31.626Z,5.90
2018-08-19T12:14:03.114Z,5.97
2018-08-19T12:16:38.575Z,6.50
2018-08-19T12:19:22.856Z,5.97
2018-08-19T12:21:55.150Z,5.67
2018-08-19T12:24:25.374Z,5.63
2018-08-19T12:26:54.656Z,5.63
2018-08-19T12:29:23.573Z,5.80
2018-08-19T12:31:57.250Z,6.07
2018-08-19T12:34:25.503Z,5.70
2018-08-19T12:36:54.313Z,6.17
2018-08-19T12:39:23.729Z,5.97
2018-08-19T12:41:52.839Z,5.40
2018-08-19T12:44:21.500Z,5.30
2018-08-19T12:47:05.210Z,4.30
2018-08-19T12:49:36.441Z,4.70
2018-08-19T12:52:04.758Z,4.73
2018-08-19T12:54:33.290Z,3.87
2018-08-19T12:57:01.905Z,4.47
2018-08-19T12:59:30.202Z,4.77
2018-08-19T13:01:58.886Z,4.40
2018-08-19T13:04:27.845Z,4.43
2018-08-19T13:07:04.042Z,4.33
2018-08-19T13:09:32.125Z,3.97
2018-08-19T13:12:02.883Z,4.60
2018-08-19T13:17:06.056Z,4.90
2018-08-19T13:19:33.981Z,4.57
2018-08-19T13:22:04.051Z,4.60
2018-08-19T13:24:35.353Z,4.00
2018-08-19T13:27:03.478Z,3.70
2018-08-19T13:29:36.047Z,3.70
2018-08-19T13:32:04.348Z,4.33
2018-08-19T13:34:33.110Z,4.20
2018-08-19T13:37:01.857Z,4.00
2018-08-19T13:39:30.545Z,3.53
2018-08-19T13:42:02.941Z,4.10
2018-08-19T13:44:33.772Z,5.00
2018-08-19T13:47:02.706Z,4.73
2018-08-19T13:49:31.410Z,4.50
2018-08-19T13:52:01.414Z,5.33
2018-08-19T13:54:31.296Z,4.40
2018-08-19T13:56:59.293Z,5.23
2018-08-19T13:59:27.645Z,4.40
2018-08-19T14:01:57.109Z,4.67
2018-08-19T14:04:26.249Z,4.10
2018-08-19T14:06:54.253Z,4.80
2018-08-19T14:09:23.007Z,4.90
2018-08-19T14:11:51.959Z,5.60
2018-08-19T14:14:20.269Z,4.20
2018-08-19T14:16:48.476Z,4.43
2018-08-19T14:19:17.521Z,4.70
2018-08-19T14:21:45.480Z,4.53
2018-08-19T14:24:14.221Z,4.20
2018-08-19T14:26:43.852Z,4.80
2018-08-19T14:29:13.169Z,8.70
2018-08-19T14:31:42.417Z,4.33
2018-08-19T14:34:10.670Z,4.70
2018-08-19T14:36:38.962Z,4.07
2018-08-19T14:39:07.314Z,3.97
2018-08-19T14:41:36.027Z,4.90
2018-08-19T14:44:04.608Z,5.03
2018-08-19T14:46:33.583Z,3.90
2018-08-19T14:49:03.804Z,4.20
2018-08-19T14:52:06.866Z,4.10
2018-08-19T14:54:34.824Z,4.30
2018-08-19T14:57:03.468Z,4.50
2018-08-19T14:59:31.710Z,3.87
2018-08-19T15:02:00.401Z,3.70
2018-08-19T15:04:29.076Z,4.13
2018-08-19T15:06:58.524Z,4.20
2018-08-19T15:09:30.512Z,4.20
2018-08-19T15:12:07.388Z,4.20
2018-08-19T15:14:44.750Z,4.33
2018-08-19T15:17:12.777Z,4.47
2018-08-19T15:19:43.071Z,5.27
2018-08-19T15:22:11.457Z,3.83
2018-08-19T15:24:39.401Z,3.53
2018-08-19T15:27:08.397Z,4.20
2018-08-19T15:29:43.186Z,4.37
2018-08-19T15:32:13.257Z,4.40
2018-08-19T15:34:41.444Z,4.30
2018-08-19T15:37:10.195Z,4.00
2018-08-19T15:39:38.463Z,4.30
2018-08-19T15:42:07.101Z,3.47
2018-08-19T15:44:40.809Z,5.03
2018-08-19T15:47:09.710Z,3.73
2018-08-19T15:49:38.045Z,3.73
2018-08-19T15:52:06.368Z,4.03
2018-08-19T15:54:35.405Z,4.33
2018-08-19T15:57:04.357Z,3.83
2018-08-19T15:59:43.168Z,4.23
2018-08-19T16:02:11.488Z,4.30
2018-08-19T16:04:39.841Z,4.80
2018-08-19T16:07:08.253Z,4.63
2018-08-19T16:09:37.040Z,3.70
2018-08-19T16:12:05.108Z,4.37
2018-08-19T16:14:35.586Z,3.93
2018-08-19T16:17:04.673Z,3.90
2018-08-19T16:19:32.937Z,4.13
2018-08-19T16:22:02.108Z,4.40
2018-08-19T16:24:30.485Z,4.53
2018-08-19T16:26:58.672Z,4.00
2018-08-19T16:29:26.629Z,4.60
2018-08-19T16:31:55.553Z,4.17
2018-08-19T16:34:24.345Z,4.47
2018-08-19T16:36:52.625Z,5.33
2018-08-19T16:39:21.490Z,4.20
2018-08-19T16:41:49.681Z,4.47
2018-08-19T16:44:17.948Z,4.40
2018-08-19T16:46:46.682Z,4.00
2018-08-19T16:49:15.095Z,4.10
2018-08-19T16:51:43.348Z,4.73
2018-08-19T16:54:11.956Z,5.13
2018-08-19T16:56:40.337Z,4.30
2018-08-19T16:59:08.610Z,4.17
2018-08-19T17:01:37.913Z,3.80
2018-08-19T17:04:06.297Z,4.27
2018-08-19T17:06:37.035Z,4.40
2018-08-19T17:09:06.905Z,4.10
2018-08-19T17:11:36.373Z,4.03
2018-08-19T17:14:05.405Z,4.30
2018-08-19T17:16:33.761Z,5.77
2018-08-19T17:19:02.050Z,4.60
2018-08-19T17:21:30.477Z,5.20
2018-08-19T17:23:59.063Z,6.07
2018-08-19T17:26:27.470Z,5.47
2018-08-19T17:28:58.157Z,5.50
2018-08-19T17:31:26.773Z,5.80
2018-08-19T17:33:55.537Z,5.60
2018-08-19T17:36:33.742Z,5.03
2018-08-19T17:39:01.720Z,6.17
2018-08-19T17:41:30.161Z,6.20
2018-08-19T17:44:01.947Z,6.00
2018-08-19T17:46:29.889Z,6.03
2018-08-19T17:48:57.821Z,6.87
2018-08-19T17:51:31.813Z,5.83
2018-08-19T17:54:01.169Z,6.30
2018-08-19T17:56:29.749Z,6.00
2018-08-19T17:58:58.032Z,6.40
2018-08-19T18:01:28.668Z,6.17
2018-08-19T18:03:57.701Z,6.63
2018-08-19T18:06:26.148Z,7.63
2018-08-19T18:08:54.455Z,7.20
2018-08-19T18:11:23.959Z,5.90
2018-08-19T18:13:52.270Z,7.07
2018-08-19T18:16:20.205Z,6.57
2018-08-19T18:18:48.311Z,6.20
2018-08-19T18:21:16.254Z,6.17
2018-08-19T18:23:46.792Z,5.90
2018-08-19T18:26:15.384Z,6.17
2018-08-19T18:28:46.544Z,6.33
2018-08-19T18:31:18.581Z,5.60
2018-08-19T18:33:51.457Z,6.60
2018-08-19T18:36:21.843Z,7.40
2018-08-19T18:38:50.300Z,6.47
2018-08-19T18:41:24.640Z,7.87
2018-08-19T18:43:56.616Z,6.23
2018-08-19T18:46:24.844Z,10.03
2018-08-19T18:49:01.154Z,6.60
2018-08-19T18:51:30.608Z,6.83
2018-08-19T18:53:59.270Z,7.00
2018-08-19T18:56:28.272Z,5.80
2018-08-19T18:58:56.731Z,7.03
2018-08-19T19:01:25.034Z,7.17
2018-08-19T19:03:52.985Z,5.53
2018-08-19T19:06:20.920Z,6.33
2018-08-19T19:08:48.893Z,8.27
2018-08-19T19:11:20.181Z,5.43
2018-08-19T19:13:49.218Z,6.73
2018-08-19T19:16:24.838Z,6.30
2018-08-19T19:18:54.009Z,6.20
2018-08-19T19:21:24.688Z,6.80
2018-08-19T19:23:53.134Z,6.97
2018-08-19T19:26:26.661Z,7.43
2018-08-19T19:28:56.036Z,5.93
2018-08-19T19:31:24.920Z,6.37
2018-08-19T19:33:55.319Z,6.00
2018-08-19T19:36:23.932Z,6.33
2018-08-19T19:38:58.049Z,7.07
2018-08-19T19:41:28.376Z,6.53
2018-08-19T19:43:57.360Z,6.23
2018-08-19T19:46:25.397Z,5.83
2018-08-19T19:48:54.932Z,6.80
2018-08-19T19:51:23.627Z,6.00
2018-08-19T19:53:51.568Z,8.50
2018-08-19T19:56:20.286Z,6.47
2018-08-19T19:58:49.940Z,6.37
2018-08-19T20:01:18.605Z,6.17
2018-08-19T20:03:54.426Z,7.10
2018-08-19T20:06:23.132Z,6.57
2018-08-19T20:08:51.801Z,6.87
2018-08-19T20:11:28.779Z,6.27
2018-08-19T20:13:58.812Z,6.57
2018-08-19T20:16:27.137Z,8.97
2018-08-19T20:18:55.103Z,6.50
2018-08-19T20:21:25.021Z,6.90
2018-08-19T20:23:55.275Z,6.20
2018-08-19T20:26:24.302Z,7.20
2018-08-19T20:28:59.066Z,6.60
2018-08-19T20:31:27.862Z,6.57
2018-08-19T20:34:02.558Z,7.40
2018-08-19T20:36:30.799Z,7.07
2018-08-19T20:38:59.164Z,6.40
2018-08-19T20:41:27.933Z,6.03
2018-08-19T20:43:56.212Z,7.03
2018-08-19T20:46:25.482Z,5.97
2018-08-19T20:48:53.785Z,6.70
2018-08-19T20:51:22.505Z,6.70
2018-08-19T20:53:51.447Z,7.00
2018-08-19T20:56:19.408Z,6.87
2018-08-19T20:58:48.163Z,6.83
2018-08-19T21:01:22.138Z,6.80
2018-08-19T21:03:50.449Z,6.77
2018-08-19T21:06:19.749Z,7.93
2018-08-19T21:08:48.325Z,8.47
2018-08-19T21:11:16.300Z,7.90
2018-08-19T21:13:45.484Z,7.90
2018-08-19T21:16:13.793Z,7.80
2018-08-19T21:18:42.295Z,7.97
2018-08-19T21:21:11.231Z,7.90
2018-08-19T21:23:40.544Z,8.33
2018-08-19T21:26:08.857Z,7.00
2018-08-19T21:28:37.164Z,7.00
2018-08-19T21:31:05.440Z,7.23
2018-08-19T21:33:33.749Z,6.60
2018-08-19T21:36:02.392Z,6.77
2018-08-19T21:38:30.646Z,6.80
2018-08-19T21:40:58.649Z,8.30
2018-08-19T21:43:28.681Z,7.83
2018-08-19T21:45:59.840Z,8.50
2018-08-19T21:48:28.032Z,8.10
2018-08-19T21:50:55.975Z,7.53
2018-08-19T21:53:24.465Z,6.93
2018-08-19T21:55:54.256Z,7.97
2018-08-19T21:58:22.594Z,7.60
2018-08-19T22:00:59.841Z,7.43
2018-08-19T22:03:33.901Z,7.70
2018-08-19T22:06:06.812Z,7.83
2018-08-19T22:08:35.216Z,9.10
2018-08-19T22:11:03.962Z,7.83
2018-08-19T22:13:32.217Z,9.90
2018-08-19T22:16:00.487Z,9.57
2018-08-19T22:18:29.652Z,8.70
2018-08-19T22:21:06.960Z,9.77
2018-08-19T22:23:40.790Z,10.50
2018-08-19T22:26:09.877Z,9.17
2018-08-19T22:28:38.461Z,8.23
2018-08-19T22:31:18.793Z,10.80
2018-08-19T22:33:49.930Z,9.27
2018-08-19T22:36:19.070Z,9.97
2018-08-19T22:38:47.833Z,10.20
2018-08-19T22:41:19.484Z,11.03
2018-08-19T22:43:49.385Z,11.23
2018-08-19T22:46:18.672Z,14.83
2018-08-19T22:48:46.840Z,10.77
2018-08-19T22:51:15.145Z,11.33
2018-08-19T22:53:43.536Z,10.60
2018-08-19T22:56:11.902Z,11.30
2018-08-19T22:58:39.841Z,11.57
2018-08-19T23:01:07.708Z,10.77
2018-08-19T23:03:36.033Z,11.27
2018-08-19T23:06:04.803Z,10.90
2018-08-19T23:08:34.101Z,14.77
2018-08-19T23:11:03.768Z,10.40
2018-08-19T23:13:43.657Z,10.87
2018-08-19T23:16:12.269Z,10.57
2018-08-19T23:18:42.169Z,9.83
2018-08-19T23:21:11.136Z,11.53
2018-08-19T23:23:40.033Z,12.70
2018-08-19T23:26:07.981Z,10.40
2018-08-19T23:28:36.305Z,10.37
2018-08-19T23:31:04.232Z,10.53
2018-08-19T23:33:32.565Z,10.87
2018-08-19T23:36:02.269Z,10.50
2018-08-19T23:38:30.238Z,9.77
2018-08-19T23:40:58.464Z,11.40
2018-08-19T23:43:27.830Z,10.87
2018-08-19T23:45:56.072Z,12.50
2018-08-19T23:48:24.809Z,11.20
2018-08-19T23:50:53.220Z,11.67
2018-08-19T23:53:21.920Z,12.47
2018-08-19T23:55:51.165Z,11.27
2018-08-19T23:58:20.521Z,11.57
